sensor_id;sensor_type;location;lat;lon;timestamp;P1;durP1;ratioP1;P2;durP2;ratioP2
67049;SDS011;53955;52.442;13.284;2022-07-29T00:00:19;5.57;;;2.28;;
67049;SDS011;53955;52.442;13.284;2022-07-29T00:02:46;3.85;;;2.38;;
67049;SDS011;53955;52.442;13.284;2022-07-29T00:05:13;4.20;;;2.38;;
67049;SDS011;53955;52.442;13.284;2022-07-29T00:07:39;4.20;;;2.22;;
67049;SDS011;53955;52.442;13.284;2022-07-29T00:10:07;4.47;;;2.30;;
67049;SDS011;53955;52.442;13.284;2022-07-29T00:12:34;4.40;;;2.40;;
67049;SDS011;53955;52.442;13.284;2022-07-29T00:15:02;4.15;;;2.38;;
67049;SDS011;53955;52.442;13.284;2022-07-29T00:17:30;5.47;;;2.67;;
67049;SDS011;53955;52.442;13.284;2022-07-29T00:19:58;5.25;;;2.67;;
67049;SDS011;53955;52.442;13.284;2022-07-29T00:22:25;4.60;;;2.75;;
67049;SDS011;53955;52.442;13.284;2022-07-29T00:24:52;3.78;;;2.25;;
67049;SDS011;53955;52.442;13.284;2022-07-29T00:27:18;5.55;;;2.50;;
67049;SDS011;53955;52.442;13.284;2022-07-29T00:29:45;6.28;;;2.70;;
67049;SDS011;53955;52.442;13.284;2022-07-29T00:32:13;5.78;;;2.78;;
67049;SDS011;53955;52.442;13.284;2022-07-29T00:34:39;5.88;;;2.42;;
67049;SDS011;53955;52.442;13.284;2022-07-29T00:37:23;5.15;;;2.50;;
67049;SDS011;53955;52.442;13.284;2022-07-29T00:39:50;5.25;;;2.67;;
67049;SDS011;53955;52.442;13.284;2022-07-29T00:42:17;4.60;;;2.08;;
67049;SDS011;53955;52.442;13.284;2022-07-29T00:44:43;5.80;;;2.72;;
67049;SDS011;53955;52.442;13.284;2022-07-29T00:47:10;4.70;;;2.80;;
67049;SDS011;53955;52.442;13.284;2022-07-29T00:49:38;3.90;;;2.10;;
67049;SDS011;53955;52.442;13.284;2022-07-29T00:52:07;3.60;;;2.22;;
67049;SDS011;53955;52.442;13.284;2022-07-29T00:54:35;5.22;;;2.40;;
67049;SDS011;53955;52.442;13.284;2022-07-29T00:57:02;3.63;;;2.42;;
67049;SDS011;53955;52.442;13.284;2022-07-29T00:59:29;3.58;;;2.15;;
67049;SDS011;53955;52.442;13.284;2022-07-29T01:01:56;5.18;;;3.00;;
67049;SDS011;53955;52.442;13.284;2022-07-29T01:04:23;5.22;;;2.60;;
67049;SDS011;53955;52.442;13.284;2022-07-29T01:06:57;3.72;;;2.40;;
67049;SDS011;53955;52.442;13.284;2022-07-29T01:09:24;3.63;;;2.20;;
67049;SDS011;53955;52.442;13.284;2022-07-29T01:11:51;5.75;;;2.45;;
67049;SDS011;53955;52.442;13.284;2022-07-29T01:14:19;5.05;;;2.80;;
67049;SDS011;53955;52.442;13.284;2022-07-29T01:16:49;4.55;;;2.42;;
67049;SDS011;53955;52.442;13.284;2022-07-29T01:19:27;5.00;;;2.45;;
67049;SDS011;53955;52.442;13.284;2022-07-29T01:22:13;6.95;;;2.95;;
67049;SDS011;53955;52.442;13.284;2022-07-29T01:24:57;3.80;;;2.15;;
67049;SDS011;53955;52.442;13.284;2022-07-29T01:27:38;5.88;;;2.60;;
67049;SDS011;53955;52.442;13.284;2022-07-29T01:30:14;4.95;;;2.60;;
67049;SDS011;53955;52.442;13.284;2022-07-29T01:32:41;4.78;;;2.50;;
67049;SDS011;53955;52.442;13.284;2022-07-29T01:35:15;4.82;;;2.40;;
67049;SDS011;53955;52.442;13.284;2022-07-29T01:37:48;4.57;;;2.50;;
67049;SDS011;53955;52.442;13.284;2022-07-29T01:40:19;4.88;;;2.28;;
67049;SDS011;53955;52.442;13.284;2022-07-29T01:42:48;3.90;;;2.40;;
67049;SDS011;53955;52.442;13.284;2022-07-29T01:45:20;3.85;;;2.33;;
67049;SDS011;53955;52.442;13.284;2022-07-29T01:47:52;5.65;;;2.33;;
67049;SDS011;53955;52.442;13.284;2022-07-29T01:50:27;5.38;;;2.47;;
67049;SDS011;53955;52.442;13.284;2022-07-29T01:52:58;5.78;;;2.85;;
67049;SDS011;53955;52.442;13.284;2022-07-29T01:55:27;4.60;;;2.53;;
67049;SDS011;53955;52.442;13.284;2022-07-29T01:57:57;8.00;;;2.60;;
67049;SDS011;53955;52.442;13.284;2022-07-29T02:00:27;3.58;;;2.45;;
67049;SDS011;53955;52.442;13.284;2022-07-29T02:02:56;4.47;;;2.33;;
67049;SDS011;53955;52.442;13.284;2022-07-29T02:05:26;5.13;;;2.70;;
67049;SDS011;53955;52.442;13.284;2022-07-29T02:07:54;6.28;;;2.83;;
67049;SDS011;53955;52.442;13.284;2022-07-29T02:10:24;3.42;;;2.40;;
67049;SDS011;53955;52.442;13.284;2022-07-29T02:12:54;4.13;;;2.15;;
67049;SDS011;53955;52.442;13.284;2022-07-29T02:15:23;4.30;;;2.40;;
67049;SDS011;53955;52.442;13.284;2022-07-29T02:17:55;5.28;;;2.38;;
67049;SDS011;53955;52.442;13.284;2022-07-29T02:20:24;4.32;;;2.50;;
67049;SDS011;53955;52.442;13.284;2022-07-29T02:22:52;5.50;;;2.33;;
67049;SDS011;53955;52.442;13.284;2022-07-29T02:25:20;4.93;;;2.30;;
67049;SDS011;53955;52.442;13.284;2022-07-29T02:27:48;6.45;;;2.35;;
67049;SDS011;53955;52.442;13.284;2022-07-29T02:30:17;9.98;;;3.28;;
67049;SDS011;53955;52.442;13.284;2022-07-29T02:32:44;6.38;;;2.90;;
67049;SDS011;53955;52.442;13.284;2022-07-29T02:35:14;4.03;;;2.50;;
67049;SDS011;53955;52.442;13.284;2022-07-29T02:37:41;5.15;;;2.45;;
67049;SDS011;53955;52.442;13.284;2022-07-29T02:40:30;4.15;;;2.25;;
67049;SDS011;53955;52.442;13.284;2022-07-29T02:42:58;4.70;;;2.53;;
67049;SDS011;53955;52.442;13.284;2022-07-29T02:45:26;5.47;;;2.42;;
67049;SDS011;53955;52.442;13.284;2022-07-29T02:47:55;4.80;;;2.70;;
67049;SDS011;53955;52.442;13.284;2022-07-29T02:50:27;7.10;;;2.88;;
67049;SDS011;53955;52.442;13.284;2022-07-29T02:53:00;5.05;;;2.58;;
67049;SDS011;53955;52.442;13.284;2022-07-29T02:55:33;4.03;;;2.25;;
67049;SDS011;53955;52.442;13.284;2022-07-29T02:58:03;4.55;;;2.72;;
67049;SDS011;53955;52.442;13.284;2022-07-29T03:00:35;6.63;;;2.47;;
67049;SDS011;53955;52.442;13.284;2022-07-29T03:03:04;5.45;;;2.45;;
67049;SDS011;53955;52.442;13.284;2022-07-29T03:05:36;9.90;;;2.55;;
67049;SDS011;53955;52.442;13.284;2022-07-29T03:08:04;5.32;;;2.40;;
67049;SDS011;53955;52.442;13.284;2022-07-29T03:10:32;4.72;;;2.75;;
67049;SDS011;53955;52.442;13.284;2022-07-29T03:13:00;4.50;;;2.75;;
67049;SDS011;53955;52.442;13.284;2022-07-29T03:15:28;3.72;;;1.85;;
67049;SDS011;53955;52.442;13.284;2022-07-29T03:17:57;5.40;;;2.40;;
67049;SDS011;53955;52.442;13.284;2022-07-29T03:20:25;4.28;;;2.70;;
67049;SDS011;53955;52.442;13.284;2022-07-29T03:22:53;4.13;;;2.20;;
67049;SDS011;53955;52.442;13.284;2022-07-29T03:25:20;4.68;;;2.58;;
67049;SDS011;53955;52.442;13.284;2022-07-29T03:27:47;6.15;;;2.65;;
67049;SDS011;53955;52.442;13.284;2022-07-29T03:30:14;4.30;;;2.33;;
67049;SDS011;53955;52.442;13.284;2022-07-29T03:32:41;5.75;;;3.17;;
67049;SDS011;53955;52.442;13.284;2022-07-29T03:35:08;7.07;;;2.60;;
67049;SDS011;53955;52.442;13.284;2022-07-29T03:37:34;3.97;;;2.45;;
67049;SDS011;53955;52.442;13.284;2022-07-29T03:40:04;5.28;;;2.50;;
67049;SDS011;53955;52.442;13.284;2022-07-29T03:42:34;4.32;;;2.47;;
67049;SDS011;53955;52.442;13.284;2022-07-29T03:45:05;4.15;;;2.53;;
67049;SDS011;53955;52.442;13.284;2022-07-29T03:47:35;6.13;;;2.63;;
67049;SDS011;53955;52.442;13.284;2022-07-29T03:50:05;5.00;;;2.30;;
67049;SDS011;53955;52.442;13.284;2022-07-29T03:52:34;3.70;;;2.33;;
67049;SDS011;53955;52.442;13.284;2022-07-29T03:55:03;4.32;;;2.40;;
67049;SDS011;53955;52.442;13.284;2022-07-29T03:57:30;3.67;;;2.30;;
67049;SDS011;53955;52.442;13.284;2022-07-29T03:59:59;4.97;;;2.90;;
67049;SDS011;53955;52.442;13.284;2022-07-29T04:02:27;7.78;;;2.80;;
67049;SDS011;53955;52.442;13.284;2022-07-29T04:04:53;7.03;;;2.35;;
67049;SDS011;53955;52.442;13.284;2022-07-29T04:07:20;5.75;;;2.58;;
67049;SDS011;53955;52.442;13.284;2022-07-29T04:09:47;4.07;;;2.72;;
67049;SDS011;53955;52.442;13.284;2022-07-29T04:12:15;4.85;;;2.30;;
67049;SDS011;53955;52.442;13.284;2022-07-29T04:14:41;8.18;;;2.78;;
67049;SDS011;53955;52.442;13.284;2022-07-29T04:17:08;5.10;;;2.58;;
67049;SDS011;53955;52.442;13.284;2022-07-29T04:19:35;5.55;;;2.60;;
67049;SDS011;53955;52.442;13.284;2022-07-29T04:22:02;4.82;;;2.65;;
67049;SDS011;53955;52.442;13.284;2022-07-29T04:24:28;5.72;;;2.50;;
67049;SDS011;53955;52.442;13.284;2022-07-29T04:26:55;4.25;;;1.90;;
67049;SDS011;53955;52.442;13.284;2022-07-29T04:29:23;5.72;;;2.45;;
67049;SDS011;53955;52.442;13.284;2022-07-29T04:31:49;6.60;;;2.30;;
67049;SDS011;53955;52.442;13.284;2022-07-29T04:34:16;6.40;;;3.20;;
67049;SDS011;53955;52.442;13.284;2022-07-29T04:36:42;5.15;;;2.40;;
67049;SDS011;53955;52.442;13.284;2022-07-29T04:39:09;5.85;;;2.70;;
67049;SDS011;53955;52.442;13.284;2022-07-29T04:41:36;5.20;;;2.78;;
67049;SDS011;53955;52.442;13.284;2022-07-29T04:44:03;5.05;;;2.05;;
67049;SDS011;53955;52.442;13.284;2022-07-29T04:46:31;5.93;;;2.53;;
67049;SDS011;53955;52.442;13.284;2022-07-29T04:48:58;8.43;;;2.90;;
67049;SDS011;53955;52.442;13.284;2022-07-29T04:51:25;4.65;;;2.75;;
67049;SDS011;53955;52.442;13.284;2022-07-29T04:53:51;6.97;;;2.75;;
67049;SDS011;53955;52.442;13.284;2022-07-29T04:56:18;6.38;;;2.70;;
67049;SDS011;53955;52.442;13.284;2022-07-29T04:58:44;6.82;;;2.60;;
67049;SDS011;53955;52.442;13.284;2022-07-29T05:01:11;3.50;;;2.50;;
67049;SDS011;53955;52.442;13.284;2022-07-29T05:03:39;3.28;;;2.10;;
67049;SDS011;53955;52.442;13.284;2022-07-29T05:06:06;5.88;;;2.42;;
67049;SDS011;53955;52.442;13.284;2022-07-29T05:08:33;6.00;;;2.50;;
67049;SDS011;53955;52.442;13.284;2022-07-29T05:10:59;5.38;;;2.22;;
67049;SDS011;53955;52.442;13.284;2022-07-29T05:13:26;8.15;;;2.50;;
67049;SDS011;53955;52.442;13.284;2022-07-29T05:15:52;4.38;;;2.63;;
67049;SDS011;53955;52.442;13.284;2022-07-29T05:18:19;9.63;;;2.78;;
67049;SDS011;53955;52.442;13.284;2022-07-29T05:20:47;6.03;;;2.33;;
67049;SDS011;53955;52.442;13.284;2022-07-29T05:23:14;5.57;;;2.42;;
67049;SDS011;53955;52.442;13.284;2022-07-29T05:25:40;3.80;;;2.28;;
67049;SDS011;53955;52.442;13.284;2022-07-29T05:28:07;6.60;;;2.28;;
67049;SDS011;53955;52.442;13.284;2022-07-29T05:30:34;5.10;;;2.50;;
67049;SDS011;53955;52.442;13.284;2022-07-29T05:33:00;5.22;;;2.22;;
67049;SDS011;53955;52.442;13.284;2022-07-29T05:35:27;5.22;;;2.30;;
67049;SDS011;53955;52.442;13.284;2022-07-29T05:37:55;10.18;;;2.92;;
67049;SDS011;53955;52.442;13.284;2022-07-29T05:40:21;4.25;;;2.30;;
67049;SDS011;53955;52.442;13.284;2022-07-29T05:42:48;6.35;;;2.40;;
67049;SDS011;53955;52.442;13.284;2022-07-29T05:45:14;3.97;;;2.20;;
67049;SDS011;53955;52.442;13.284;2022-07-29T05:47:41;6.70;;;2.65;;
67049;SDS011;53955;52.442;13.284;2022-07-29T05:50:08;3.88;;;2.22;;
67049;SDS011;53955;52.442;13.284;2022-07-29T05:52:35;10.90;;;2.70;;
67049;SDS011;53955;52.442;13.284;2022-07-29T05:55:03;7.25;;;2.60;;
67049;SDS011;53955;52.442;13.284;2022-07-29T05:57:30;7.15;;;2.17;;
67049;SDS011;53955;52.442;13.284;2022-07-29T05:59:57;4.78;;;2.75;;
67049;SDS011;53955;52.442;13.284;2022-07-29T06:02:24;4.53;;;2.42;;
67049;SDS011;53955;52.442;13.284;2022-07-29T06:04:50;7.00;;;2.35;;
67049;SDS011;53955;52.442;13.284;2022-07-29T06:07:17;6.10;;;2.60;;
67049;SDS011;53955;52.442;13.284;2022-07-29T06:09:43;8.10;;;2.67;;
67049;SDS011;53955;52.442;13.284;2022-07-29T06:12:11;4.75;;;1.92;;
67049;SDS011;53955;52.442;13.284;2022-07-29T06:14:38;6.90;;;3.00;;
67049;SDS011;53955;52.442;13.284;2022-07-29T06:17:05;10.20;;;2.40;;
67049;SDS011;53955;52.442;13.284;2022-07-29T06:19:33;6.13;;;2.63;;
67049;SDS011;53955;52.442;13.284;2022-07-29T06:22:01;8.95;;;2.33;;
67049;SDS011;53955;52.442;13.284;2022-07-29T06:24:28;6.35;;;2.38;;
67049;SDS011;53955;52.442;13.284;2022-07-29T06:26:54;4.20;;;2.15;;
67049;SDS011;53955;52.442;13.284;2022-07-29T06:29:22;6.00;;;2.22;;
67049;SDS011;53955;52.442;13.284;2022-07-29T06:31:49;8.25;;;2.45;;
67049;SDS011;53955;52.442;13.284;2022-07-29T06:34:16;5.55;;;2.10;;
67049;SDS011;53955;52.442;13.284;2022-07-29T06:36:43;6.00;;;2.05;;
67049;SDS011;53955;52.442;13.284;2022-07-29T06:39:10;6.53;;;2.40;;
67049;SDS011;53955;52.442;13.284;2022-07-29T06:41:36;4.47;;;1.95;;
67049;SDS011;53955;52.442;13.284;2022-07-29T06:44:03;8.60;;;2.85;;
67049;SDS011;53955;52.442;13.284;2022-07-29T06:46:31;6.35;;;2.20;;
67049;SDS011;53955;52.442;13.284;2022-07-29T06:48:58;11.13;;;2.50;;
67049;SDS011;53955;52.442;13.284;2022-07-29T06:51:26;6.72;;;2.95;;
67049;SDS011;53955;52.442;13.284;2022-07-29T06:53:53;6.40;;;2.22;;
67049;SDS011;53955;52.442;13.284;2022-07-29T06:56:19;12.80;;;3.13;;
67049;SDS011;53955;52.442;13.284;2022-07-29T06:58:46;7.18;;;2.38;;
67049;SDS011;53955;52.442;13.284;2022-07-29T07:01:13;5.90;;;2.42;;
67049;SDS011;53955;52.442;13.284;2022-07-29T07:03:41;12.40;;;3.00;;
67049;SDS011;53955;52.442;13.284;2022-07-29T07:06:08;4.47;;;2.38;;
67049;SDS011;53955;52.442;13.284;2022-07-29T07:08:34;5.22;;;2.15;;
67049;SDS011;53955;52.442;13.284;2022-07-29T07:11:01;5.35;;;2.25;;
67049;SDS011;53955;52.442;13.284;2022-07-29T07:13:28;6.85;;;2.38;;
67049;SDS011;53955;52.442;13.284;2022-07-29T07:15:59;9.60;;;2.47;;
67049;SDS011;53955;52.442;13.284;2022-07-29T07:18:26;3.78;;;2.17;;
67049;SDS011;53955;52.442;13.284;2022-07-29T07:20:54;6.43;;;2.05;;
67049;SDS011;53955;52.442;13.284;2022-07-29T07:23:21;5.80;;;2.00;;
67049;SDS011;53955;52.442;13.284;2022-07-29T07:25:48;6.97;;;2.25;;
67049;SDS011;53955;52.442;13.284;2022-07-29T07:28:14;4.80;;;1.83;;
67049;SDS011;53955;52.442;13.284;2022-07-29T07:30:41;6.63;;;2.58;;
67049;SDS011;53955;52.442;13.284;2022-07-29T07:33:08;4.55;;;1.77;;
67049;SDS011;53955;52.442;13.284;2022-07-29T07:35:35;5.47;;;2.35;;
67049;SDS011;53955;52.442;13.284;2022-07-29T07:38:03;3.22;;;2.10;;
67049;SDS011;53955;52.442;13.284;2022-07-29T07:40:31;7.18;;;2.08;;
67049;SDS011;53955;52.442;13.284;2022-07-29T07:42:57;3.55;;;1.98;;
67049;SDS011;53955;52.442;13.284;2022-07-29T07:45:24;10.45;;;2.47;;
67049;SDS011;53955;52.442;13.284;2022-07-29T07:47:51;4.85;;;1.95;;
67049;SDS011;53955;52.442;13.284;2022-07-29T07:50:17;5.70;;;2.05;;
67049;SDS011;53955;52.442;13.284;2022-07-29T07:52:47;4.93;;;1.88;;
67049;SDS011;53955;52.442;13.284;2022-07-29T07:55:17;3.13;;;1.80;;
67049;SDS011;53955;52.442;13.284;2022-07-29T07:57:45;6.15;;;1.70;;
67049;SDS011;53955;52.442;13.284;2022-07-29T08:00:12;5.45;;;1.73;;
67049;SDS011;53955;52.442;13.284;2022-07-29T08:02:40;4.65;;;1.73;;
67049;SDS011;53955;52.442;13.284;2022-07-29T08:05:07;3.03;;;1.85;;
67049;SDS011;53955;52.442;13.284;2022-07-29T08:07:35;4.05;;;2.08;;
67049;SDS011;53955;52.442;13.284;2022-07-29T08:10:02;6.53;;;1.88;;
67049;SDS011;53955;52.442;13.284;2022-07-29T08:12:30;3.25;;;1.30;;
67049;SDS011;53955;52.442;13.284;2022-07-29T08:14:57;4.30;;;1.98;;
67049;SDS011;53955;52.442;13.284;2022-07-29T08:17:23;4.85;;;1.55;;
67049;SDS011;53955;52.442;13.284;2022-07-29T08:19:51;2.58;;;1.40;;
67049;SDS011;53955;52.442;13.284;2022-07-29T08:22:18;7.13;;;2.03;;
67049;SDS011;53955;52.442;13.284;2022-07-29T08:24:44;3.60;;;1.90;;
67049;SDS011;53955;52.442;13.284;2022-07-29T08:27:17;6.05;;;1.58;;
67049;SDS011;53955;52.442;13.284;2022-07-29T08:29:45;3.30;;;1.55;;
67049;SDS011;53955;52.442;13.284;2022-07-29T08:32:12;6.30;;;1.77;;
67049;SDS011;53955;52.442;13.284;2022-07-29T08:34:39;3.28;;;1.40;;
67049;SDS011;53955;52.442;13.284;2022-07-29T08:37:06;3.20;;;1.30;;
67049;SDS011;53955;52.442;13.284;2022-07-29T08:39:32;4.45;;;1.42;;
67049;SDS011;53955;52.442;13.284;2022-07-29T08:41:59;11.55;;;1.70;;
67049;SDS011;53955;52.442;13.284;2022-07-29T08:44:25;3.15;;;1.60;;
67049;SDS011;53955;52.442;13.284;2022-07-29T08:46:53;2.72;;;1.40;;
67049;SDS011;53955;52.442;13.284;2022-07-29T08:49:20;2.72;;;1.40;;
67049;SDS011;53955;52.442;13.284;2022-07-29T08:51:47;2.70;;;1.30;;
67049;SDS011;53955;52.442;13.284;2022-07-29T08:54:16;8.93;;;1.67;;
67049;SDS011;53955;52.442;13.284;2022-07-29T08:56:43;3.20;;;1.55;;
67049;SDS011;53955;52.442;13.284;2022-07-29T08:59:13;3.65;;;1.75;;
67049;SDS011;53955;52.442;13.284;2022-07-29T09:01:41;3.75;;;1.38;;
67049;SDS011;53955;52.442;13.284;2022-07-29T09:04:11;4.72;;;1.85;;
67049;SDS011;53955;52.442;13.284;2022-07-29T09:06:40;3.00;;;1.38;;
67049;SDS011;53955;52.442;13.284;2022-07-29T09:09:10;3.65;;;2.00;;
67049;SDS011;53955;52.442;13.284;2022-07-29T09:11:38;7.30;;;1.70;;
67049;SDS011;53955;52.442;13.284;2022-07-29T09:14:05;5.25;;;1.67;;
67049;SDS011;53955;52.442;13.284;2022-07-29T09:16:51;3.30;;;1.83;;
67049;SDS011;53955;52.442;13.284;2022-07-29T09:19:21;3.60;;;1.50;;
67049;SDS011;53955;52.442;13.284;2022-07-29T09:21:49;4.18;;;1.42;;
67049;SDS011;53955;52.442;13.284;2022-07-29T09:27:08;4.65;;;1.50;;
67049;SDS011;53955;52.442;13.284;2022-07-29T09:29:37;4.05;;;1.73;;
67049;SDS011;53955;52.442;13.284;2022-07-29T09:32:05;4.53;;;1.73;;
67049;SDS011;53955;52.442;13.284;2022-07-29T09:34:36;3.08;;;1.40;;
67049;SDS011;53955;52.442;13.284;2022-07-29T09:37:03;2.92;;;1.55;;
67049;SDS011;53955;52.442;13.284;2022-07-29T09:39:31;3.25;;;1.55;;
67049;SDS011;53955;52.442;13.284;2022-07-29T09:42:00;3.25;;;1.63;;
67049;SDS011;53955;52.442;13.284;2022-07-29T09:44:39;3.20;;;1.58;;
67049;SDS011;53955;52.442;13.284;2022-07-29T09:47:08;4.55;;;1.40;;
67049;SDS011;53955;52.442;13.284;2022-07-29T09:49:35;4.13;;;2.00;;
67049;SDS011;53955;52.442;13.284;2022-07-29T09:52:19;2.83;;;1.60;;
67049;SDS011;53955;52.442;13.284;2022-07-29T09:54:46;2.28;;;1.30;;
67049;SDS011;53955;52.442;13.284;2022-07-29T09:57:23;4.32;;;1.55;;
67049;SDS011;53955;52.442;13.284;2022-07-29T09:59:58;3.60;;;1.20;;
67049;SDS011;53955;52.442;13.284;2022-07-29T10:02:29;4.63;;;1.40;;
67049;SDS011;53955;52.442;13.284;2022-07-29T10:04:57;3.03;;;1.10;;
67049;SDS011;53955;52.442;13.284;2022-07-29T10:07:26;2.38;;;1.40;;
67049;SDS011;53955;52.442;13.284;2022-07-29T10:09:54;3.05;;;1.40;;
67049;SDS011;53955;52.442;13.284;2022-07-29T10:12:23;2.05;;;1.15;;
67049;SDS011;53955;52.442;13.284;2022-07-29T10:14:50;2.08;;;1.20;;
67049;SDS011;53955;52.442;13.284;2022-07-29T10:17:17;2.13;;;1.30;;
67049;SDS011;53955;52.442;13.284;2022-07-29T10:19:44;5.30;;;1.00;;
67049;SDS011;53955;52.442;13.284;2022-07-29T10:22:11;6.80;;;1.55;;
67049;SDS011;53955;52.442;13.284;2022-07-29T10:24:39;2.42;;;1.17;;
67049;SDS011;53955;52.442;13.284;2022-07-29T10:27:07;2.70;;;1.23;;
67049;SDS011;53955;52.442;13.284;2022-07-29T10:29:34;4.75;;;1.40;;
67049;SDS011;53955;52.442;13.284;2022-07-29T10:32:07;6.55;;;1.38;;
67049;SDS011;53955;52.442;13.284;2022-07-29T10:34:48;2.22;;;1.10;;
67049;SDS011;53955;52.442;13.284;2022-07-29T10:37:43;3.70;;;1.60;;
67049;SDS011;53955;52.442;13.284;2022-07-29T10:40:26;5.07;;;2.10;;
67049;SDS011;53955;52.442;13.284;2022-07-29T10:43:18;2.58;;;1.30;;
67049;SDS011;53955;52.442;13.284;2022-07-29T10:45:48;2.13;;;1.30;;
67049;SDS011;53955;52.442;13.284;2022-07-29T10:48:20;2.70;;;1.38;;
67049;SDS011;53955;52.442;13.284;2022-07-29T10:50:51;3.42;;;1.00;;
67049;SDS011;53955;52.442;13.284;2022-07-29T10:53:19;3.10;;;1.10;;
67049;SDS011;53955;52.442;13.284;2022-07-29T10:55:47;2.90;;;1.27;;
67049;SDS011;53955;52.442;13.284;2022-07-29T10:58:15;2.25;;;1.33;;
67049;SDS011;53955;52.442;13.284;2022-07-29T11:00:44;8.77;;;2.17;;
67049;SDS011;53955;52.442;13.284;2022-07-29T11:06:09;4.55;;;1.35;;
67049;SDS011;53955;52.442;13.284;2022-07-29T11:08:36;2.45;;;1.30;;
67049;SDS011;53955;52.442;13.284;2022-07-29T11:14:05;4.35;;;1.20;;
67049;SDS011;53955;52.442;13.284;2022-07-29T11:16:57;5.75;;;1.42;;
67049;SDS011;53955;52.442;13.284;2022-07-29T11:19:27;2.40;;;1.30;;
67049;SDS011;53955;52.442;13.284;2022-07-29T11:21:53;7.93;;;2.22;;
67049;SDS011;53955;52.442;13.284;2022-07-29T11:24:21;4.57;;;1.90;;
67049;SDS011;53955;52.442;13.284;2022-07-29T11:27:10;2.70;;;1.30;;
67049;SDS011;53955;52.442;13.284;2022-07-29T11:29:48;2.03;;;1.45;;
67049;SDS011;53955;52.442;13.284;2022-07-29T11:32:17;2.65;;;1.40;;
67049;SDS011;53955;52.442;13.284;2022-07-29T11:34:45;3.33;;;1.55;;
67049;SDS011;53955;52.442;13.284;2022-07-29T11:37:22;2.10;;;1.15;;
67049;SDS011;53955;52.442;13.284;2022-07-29T11:42:41;2.22;;;1.40;;
67049;SDS011;53955;52.442;13.284;2022-07-29T11:45:13;4.18;;;1.50;;
67049;SDS011;53955;52.442;13.284;2022-07-29T11:47:46;6.25;;;1.80;;
67049;SDS011;53955;52.442;13.284;2022-07-29T11:50:16;3.22;;;1.55;;
67049;SDS011;53955;52.442;13.284;2022-07-29T11:52:55;7.72;;;1.75;;
67049;SDS011;53955;52.442;13.284;2022-07-29T11:55:23;3.33;;;1.90;;
67049;SDS011;53955;52.442;13.284;2022-07-29T11:57:52;3.17;;;1.42;;
67049;SDS011;53955;52.442;13.284;2022-07-29T12:00:20;3.15;;;1.70;;
67049;SDS011;53955;52.442;13.284;2022-07-29T12:02:50;5.10;;;2.05;;
67049;SDS011;53955;52.442;13.284;2022-07-29T12:05:17;2.67;;;1.63;;
67049;SDS011;53955;52.442;13.284;2022-07-29T12:07:44;4.95;;;2.13;;
67049;SDS011;53955;52.442;13.284;2022-07-29T12:10:12;4.15;;;1.88;;
67049;SDS011;53955;52.442;13.284;2022-07-29T12:12:39;4.60;;;1.90;;
67049;SDS011;53955;52.442;13.284;2022-07-29T12:15:16;3.85;;;1.85;;
67049;SDS011;53955;52.442;13.284;2022-07-29T12:17:45;4.30;;;2.17;;
67049;SDS011;53955;52.442;13.284;2022-07-29T12:20:13;4.53;;;2.40;;
67049;SDS011;53955;52.442;13.284;2022-07-29T12:22:49;3.88;;;1.90;;
67049;SDS011;53955;52.442;13.284;2022-07-29T12:25:18;4.45;;;2.40;;
67049;SDS011;53955;52.442;13.284;2022-07-29T12:27:46;6.57;;;2.00;;
67049;SDS011;53955;52.442;13.284;2022-07-29T12:30:13;5.05;;;2.20;;
67049;SDS011;53955;52.442;13.284;2022-07-29T12:32:43;4.47;;;2.22;;
67049;SDS011;53955;52.442;13.284;2022-07-29T12:35:12;3.72;;;2.05;;
67049;SDS011;53955;52.442;13.284;2022-07-29T12:37:42;5.03;;;2.10;;
67049;SDS011;53955;52.442;13.284;2022-07-29T12:40:10;6.72;;;2.30;;
67049;SDS011;53955;52.442;13.284;2022-07-29T12:42:38;3.15;;;1.85;;
67049;SDS011;53955;52.442;13.284;2022-07-29T12:45:06;3.15;;;2.10;;
67049;SDS011;53955;52.442;13.284;2022-07-29T12:47:33;5.25;;;2.40;;
67049;SDS011;53955;52.442;13.284;2022-07-29T12:50:18;5.53;;;2.05;;
67049;SDS011;53955;52.442;13.284;2022-07-29T12:52:45;3.53;;;2.13;;
67049;SDS011;53955;52.442;13.284;2022-07-29T12:55:12;4.40;;;2.00;;
67049;SDS011;53955;52.442;13.284;2022-07-29T12:57:45;5.03;;;2.20;;
67049;SDS011;53955;52.442;13.284;2022-07-29T13:00:14;6.22;;;2.72;;
67049;SDS011;53955;52.442;13.284;2022-07-29T13:02:41;3.05;;;2.00;;
67049;SDS011;53955;52.442;13.284;2022-07-29T13:05:10;3.33;;;2.13;;
67049;SDS011;53955;52.442;13.284;2022-07-29T13:07:37;4.47;;;2.20;;
67049;SDS011;53955;52.442;13.284;2022-07-29T13:10:11;2.75;;;1.80;;
67049;SDS011;53955;52.442;13.284;2022-07-29T13:15:28;4.15;;;2.13;;
67049;SDS011;53955;52.442;13.284;2022-07-29T13:17:55;3.20;;;2.08;;
67049;SDS011;53955;52.442;13.284;2022-07-29T13:20:25;3.05;;;1.90;;
67049;SDS011;53955;52.442;13.284;2022-07-29T13:22:54;2.63;;;1.83;;
67049;SDS011;53955;52.442;13.284;2022-07-29T13:25:24;4.07;;;2.55;;
67049;SDS011;53955;52.442;13.284;2022-07-29T13:27:52;5.93;;;2.15;;
67049;SDS011;53955;52.442;13.284;2022-07-29T13:30:20;3.15;;;1.80;;
67049;SDS011;53955;52.442;13.284;2022-07-29T13:32:47;6.57;;;2.20;;
67049;SDS011;53955;52.442;13.284;2022-07-29T13:35:14;3.15;;;1.90;;
67049;SDS011;53955;52.442;13.284;2022-07-29T13:37:42;7.20;;;2.58;;
67049;SDS011;53955;52.442;13.284;2022-07-29T13:40:09;4.80;;;2.58;;
67049;SDS011;53955;52.442;13.284;2022-07-29T13:42:37;4.30;;;2.05;;
67049;SDS011;53955;52.442;13.284;2022-07-29T13:45:04;3.28;;;2.03;;
67049;SDS011;53955;52.442;13.284;2022-07-29T13:47:32;4.10;;;2.22;;
67049;SDS011;53955;52.442;13.284;2022-07-29T13:49:59;3.08;;;2.10;;
67049;SDS011;53955;52.442;13.284;2022-07-29T13:52:25;2.92;;;1.77;;
67049;SDS011;53955;52.442;13.284;2022-07-29T13:54:53;6.18;;;2.20;;
67049;SDS011;53955;52.442;13.284;2022-07-29T13:57:20;3.72;;;2.13;;
67049;SDS011;53955;52.442;13.284;2022-07-29T13:59:47;5.28;;;1.90;;
67049;SDS011;53955;52.442;13.284;2022-07-29T14:02:13;3.00;;;2.00;;
67049;SDS011;53955;52.442;13.284;2022-07-29T14:04:40;4.03;;;1.98;;
67049;SDS011;53955;52.442;13.284;2022-07-29T14:07:07;2.50;;;1.90;;
67049;SDS011;53955;52.442;13.284;2022-07-29T14:09:33;3.83;;;2.30;;
67049;SDS011;53955;52.442;13.284;2022-07-29T14:12:01;4.65;;;2.58;;
67049;SDS011;53955;52.442;13.284;2022-07-29T14:14:28;5.85;;;2.20;;
67049;SDS011;53955;52.442;13.284;2022-07-29T14:16:56;4.72;;;2.10;;
67049;SDS011;53955;52.442;13.284;2022-07-29T14:19:23;4.20;;;1.85;;
67049;SDS011;53955;52.442;13.284;2022-07-29T14:21:50;4.82;;;2.25;;
67049;SDS011;53955;52.442;13.284;2022-07-29T14:24:16;4.72;;;2.38;;
67049;SDS011;53955;52.442;13.284;2022-07-29T14:26:43;6.38;;;2.90;;
67049;SDS011;53955;52.442;13.284;2022-07-29T14:29:11;3.95;;;2.38;;
67049;SDS011;53955;52.442;13.284;2022-07-29T14:31:37;3.38;;;2.00;;
67049;SDS011;53955;52.442;13.284;2022-07-29T14:34:04;4.97;;;2.17;;
67049;SDS011;53955;52.442;13.284;2022-07-29T14:36:30;5.22;;;2.20;;
67049;SDS011;53955;52.442;13.284;2022-07-29T14:38:57;5.35;;;2.58;;
67049;SDS011;53955;52.442;13.284;2022-07-29T14:41:24;3.70;;;2.28;;
67049;SDS011;53955;52.442;13.284;2022-07-29T14:43:53;4.03;;;1.85;;
67049;SDS011;53955;52.442;13.284;2022-07-29T14:46:21;4.13;;;2.08;;
67049;SDS011;53955;52.442;13.284;2022-07-29T14:48:48;4.07;;;2.30;;
67049;SDS011;53955;52.442;13.284;2022-07-29T14:51:14;3.65;;;1.98;;
67049;SDS011;53955;52.442;13.284;2022-07-29T14:53:42;3.58;;;2.05;;
67049;SDS011;53955;52.442;13.284;2022-07-29T14:56:09;4.20;;;2.10;;